Portada
METAR-TAF:

METAR-TAF

Aeropuertos :

Fort Richardson, Alaska, Estados Unidos

latitud: 61-15-45N, longitud: 149-39-17W, altitud: 115 m

Observación

El informe se hizo hace 15 minutos, a las 20:55 UTC
Viento calma
Temperatura 3°C
Humedad 38%
Presión 1023 hPa
Visibilidad: 16.1 km
Cielo despejado

METAR: PAFR 142055Z AUTO 00000KT 10SM CLR 03/M10 A3020 RMK AO2 SLP236 T00291100 52015 $

Hora: 13:10 (21:10 UTC)


TAF: falta

Observaciones y pronósticos meteorológicos de más de 4000 aeropuertos (mensajes METAR y TAF).

Los puntos amarillos y rojos representan las estaciones disponibles.

Ponga el ratón en el punto deseado para ver el nombre de la estación.

Haga clic para ver las observaciones y los pronósticos meteorológicos.

Para cambiar el mapa : haga clic en los botones verdes con una cruz de color negro para hacer un zoom, en el botón verde con un guión para alejar o en las flechas verdes para mapas adyacentes.


METAR-TAF: